»·PEaware :: N515ZT KLAS-KSAN

N515ZT :: KLAS-KSAN

FLIGHT INFORMATION

Flight Status: Arrived
Operator: Privately registered:
United States
More flights under this callsign
Pilot: Marty P. (27464)
Aircraft: BOMBARDIER BD-100 CHALLENGER 300
(CL30)
More flights by this aircraft type
Origin: KLAS McCarran Intl
United States
Destination: KSAN San Diego Intl-Lindbergh
United States
More flights between these airports :: More routes between these airports
Route: BOACH8 LVELL LUCKI1
File this flight plan on PilotEdge
Remarks:
Altitude:
(Current/Filed)
30,000ft
Speed:
(Current/Filed)
470kts
Departed: 12-Mar-20 10:10 PM
Arrived: 12-Mar-20 10:53 PM
Distance/Time
Traveled:
225nm/0:43
Distance/Time
To Go:
Arrived

Flight Plot

Page will automatically refresh every two minutes.

Flight plan parsing failed; only flown route is shown


Map Options




Map Legend


Flown Route
Filed Route
Departure Airport
Arrival Airport
Navaid (VOR, NDB)
Fix

Horizontal Profiles

Position Reports

Time Latitude Longitude Heading Altitude Ground
Speed
12-Mar-20 21:47 36.081681 -115.147926 61 2188ft 0kts
12-Mar-20 21:48 36.081681 -115.147926 61 2188ft 0kts
12-Mar-20 21:49 36.081681 -115.147926 61 2188ft 0kts
12-Mar-20 21:50 36.081681 -115.147926 61 2188ft 0kts
12-Mar-20 21:51 36.081681 -115.147926 61 2188ft 0kts
12-Mar-20 21:52 36.081681 -115.147926 61 2188ft 0kts
12-Mar-20 21:53 36.081681 -115.147926 61 2188ft 0kts
12-Mar-20 21:54 36.081681 -115.147926 61 2188ft 0kts
12-Mar-20 21:55 36.081681 -115.147926 61 2188ft 0kts
12-Mar-20 21:56 36.081681 -115.147926 61 2188ft 0kts
12-Mar-20 21:57 36.081681 -115.147926 61 2188ft 0kts
12-Mar-20 21:58 36.081681 -115.147926 61 2188ft 0kts
12-Mar-20 21:59 36.081681 -115.147926 61 2188ft 0kts
12-Mar-20 22:00 36.081559 -115.148201 61 2188ft 2kts
12-Mar-20 22:01 36.081567 -115.148802 155 2188ft 1kts
12-Mar-20 22:02 36.081577 -115.148808 155 2188ft 0kts
12-Mar-20 22:03 36.081451 -115.148734 155 2188ft 3kts
12-Mar-20 22:04 36.078450 -115.146087 95 2188ft 11kts
12-Mar-20 22:05 36.078269 -115.139584 89 2188ft 23kts
12-Mar-20 22:06 36.078272 -115.132683 89 2188ft 17kts
12-Mar-20 22:07 36.078283 -115.124835 89 2188ft 24kts
12-Mar-20 22:08 36.077432 -115.121444 139 2188ft 0kts
12-Mar-20 22:09 36.076394 -115.133672 269 2188ft 161kts
12-Mar-20 22:10 36.076280 -115.203943 269 5068ft 234kts
12-Mar-20 22:11 36.033698 -115.271321 200 8442ft 305kts
12-Mar-20 22:12 35.957784 -115.302672 182 14528ft 299kts
12-Mar-20 22:13 35.873937 -115.313081 181 18901ft 323kts
12-Mar-20 22:14 35.789841 -115.307296 171 23607ft 302kts
12-Mar-20 22:15 35.704871 -115.297707 171 26788ft 315kts
12-Mar-20 22:16 35.615316 -115.297314 178 29512ft 330kts
12-Mar-20 22:17 35.514967 -115.301104 178 29985ft 398kts
12-Mar-20 22:18 35.396326 -115.305795 179 29980ft 454kts
12-Mar-20 22:19 35.269982 -115.310808 179 29970ft 454kts
12-Mar-20 22:20 35.143710 -115.315783 179 29963ft 455kts
12-Mar-20 22:21 35.017045 -115.320743 179 29951ft 455kts
12-Mar-20 22:22 34.892157 -115.325603 178 29954ft 456kts
12-Mar-20 22:23 34.765645 -115.340724 194 29956ft 464kts
12-Mar-20 22:24 34.642764 -115.391793 196 29977ft 467kts
12-Mar-20 22:25 34.519371 -115.445370 196 30029ft 478kts
12-Mar-20 22:26 34.393389 -115.500190 197 30029ft 484kts
12-Mar-20 22:27 34.271184 -115.570845 208 30030ft 493kts
12-Mar-20 22:28 34.148058 -115.643702 199 28968ft 486kts
12-Mar-20 22:29 34.026764 -115.701463 198 27162ft 465kts
12-Mar-20 22:30 33.906839 -115.758311 199 25345ft 462kts
12-Mar-20 22:31 33.790118 -115.815499 199 23946ft 448kts
12-Mar-20 22:32 33.677629 -115.868566 198 23942ft 424kts
12-Mar-20 22:33 33.563455 -115.922503 202 23809ft 453kts
12-Mar-20 22:34 33.472062 -116.025558 230 23228ft 455kts
12-Mar-20 22:35 33.399627 -116.144254 232 21285ft 432kts
12-Mar-20 22:36 33.327142 -116.251076 208 19826ft 389kts
12-Mar-20 22:37 33.235455 -116.308985 205 18261ft 374kts
12-Mar-20 22:38 33.147502 -116.361160 205 15281ft 328kts
12-Mar-20 22:39 33.063675 -116.410239 205 12973ft 325kts
12-Mar-20 22:40 32.990856 -116.460240 218 12978ft 292kts
12-Mar-20 22:41 32.924743 -116.526064 219 11938ft 306kts
12-Mar-20 22:42 32.861743 -116.589272 220 9860ft 296kts
12-Mar-20 22:43 32.800698 -116.650712 221 8202ft 291kts
12-Mar-20 22:44 32.752451 -116.723788 240 7000ft 288kts
12-Mar-20 22:45 32.713830 -116.804757 240 5975ft 259kts
12-Mar-20 22:46 32.689335 -116.876615 249 5636ft 202kts
12-Mar-20 22:47 32.673509 -116.940256 281 3942ft 171kts
12-Mar-20 22:48 32.685878 -116.993046 283 3975ft 172kts
12-Mar-20 22:49 32.699214 -117.048361 284 3978ft 175kts
12-Mar-20 22:51 32.712671 -117.103671 283 1814ft 164kts
12-Mar-20 22:52 32.724598 -117.152589 283 470ft 153kts
12-Mar-20 22:53 32.734192 -117.192358 285 24ft 35kts
12-Mar-20 22:54 32.733473 -117.195390 209 24ft 0kts
12-Mar-20 22:55 32.733066 -117.195758 227 24ft 0kts

Navigation Log

Ident Type
Flight plan parsing failed, navigation log unavailable